KCAG

Craig-Moffat Airport

Craig, Colorado, USA
METAR KCAG 141153Z AUTO 22003KT 10SM CLR M16/M18 A3046 RMK AO2 SLP398 T11611183 11117 21167 50001
Observed Flight Rules
Dec-14 @ 11:53 UTC (40 minutes ago) Visual Flight Rules
Wind Visibility Clouds
220° at 3 knots 10 miles
  • Clear skies
Temperatures Readings
Current -16°C / 3°F
Dewpoint -18°C / -0°F
Humidity 85%
Altimeter 30.46" Hg
Pressure 1039.8 hPa
Elevation 1887
METAR KCAG 141153Z AUTO 22003KT 10SM CLR M16/M18 A3046 RMK AO2 SLP398 T11611183 11117 21167 50001
Observed Flight Rules
Dec-14 @ 11:53 UTC
(40 minutes ago)
VFR
Wind Visibility
220° at 3 knots 10 miles
Clouds
  • Clear skies
Temperature Dewpoint
-16°C / 3°F -18°C / -0°F
Humidity Altimeter Pressure
85% 30.46" Hg 1039.8 hPa